sensor_id;sensor_type;location;lat;lon;timestamp;P1;durP1;ratioP1;P2;durP2;ratioP2
69783;SDS011;57054;51.978;4.498;2022-10-16T00:01:16;1.50;;;1.27;;
69783;SDS011;57054;51.978;4.498;2022-10-16T00:03:43;3.40;;;1.15;;
69783;SDS011;57054;51.978;4.498;2022-10-16T00:06:10;1.25;;;0.82;;
69783;SDS011;57054;51.978;4.498;2022-10-16T00:08:37;1.98;;;1.08;;
69783;SDS011;57054;51.978;4.498;2022-10-16T00:11:05;3.38;;;0.93;;
69783;SDS011;57054;51.978;4.498;2022-10-16T00:13:31;1.33;;;0.90;;
69783;SDS011;57054;51.978;4.498;2022-10-16T00:15:58;1.48;;;0.85;;
69783;SDS011;57054;51.978;4.498;2022-10-16T00:18:24;1.67;;;1.00;;
69783;SDS011;57054;51.978;4.498;2022-10-16T00:20:50;2.50;;;0.90;;
69783;SDS011;57054;51.978;4.498;2022-10-16T00:23:17;1.55;;;0.90;;
69783;SDS011;57054;51.978;4.498;2022-10-16T00:25:43;1.75;;;1.08;;
69783;SDS011;57054;51.978;4.498;2022-10-16T00:28:08;1.05;;;0.80;;
69783;SDS011;57054;51.978;4.498;2022-10-16T00:30:34;0.93;;;0.80;;
69783;SDS011;57054;51.978;4.498;2022-10-16T00:33:03;2.25;;;0.80;;
69783;SDS011;57054;51.978;4.498;2022-10-16T00:35:28;0.90;;;0.70;;
69783;SDS011;57054;51.978;4.498;2022-10-16T00:37:54;1.08;;;0.85;;
69783;SDS011;57054;51.978;4.498;2022-10-16T00:40:19;2.03;;;0.70;;
69783;SDS011;57054;51.978;4.498;2022-10-16T00:42:45;1.45;;;0.65;;
69783;SDS011;57054;51.978;4.498;2022-10-16T00:45:10;1.02;;;0.57;;
69783;SDS011;57054;51.978;4.498;2022-10-16T00:48:02;1.02;;;0.70;;
69783;SDS011;57054;51.978;4.498;2022-10-16T00:50:28;1.85;;;0.60;;
69783;SDS011;57054;51.978;4.498;2022-10-16T00:52:56;1.40;;;0.57;;
69783;SDS011;57054;51.978;4.498;2022-10-16T00:55:23;1.35;;;0.70;;
69783;SDS011;57054;51.978;4.498;2022-10-16T00:57:50;1.48;;;0.82;;
69783;SDS011;57054;51.978;4.498;2022-10-16T01:00:18;0.80;;;0.80;;
69783;SDS011;57054;51.978;4.498;2022-10-16T01:02:53;2.20;;;0.90;;
69783;SDS011;57054;51.978;4.498;2022-10-16T01:05:22;1.95;;;0.90;;
69783;SDS011;57054;51.978;4.498;2022-10-16T01:13:18;1.42;;;1.10;;
69783;SDS011;57054;51.978;4.498;2022-10-16T01:15:54;1.00;;;0.90;;
69783;SDS011;57054;51.978;4.498;2022-10-16T01:18:42;3.38;;;1.10;;
69783;SDS011;57054;51.978;4.498;2022-10-16T01:27:01;2.65;;;0.80;;
69783;SDS011;57054;51.978;4.498;2022-10-16T01:29:33;5.07;;;0.93;;
69783;SDS011;57054;51.978;4.498;2022-10-16T01:32:00;1.48;;;1.00;;
69783;SDS011;57054;51.978;4.498;2022-10-16T01:34:35;1.23;;;0.80;;
69783;SDS011;57054;51.978;4.498;2022-10-16T01:37:14;1.65;;;1.30;;
69783;SDS011;57054;51.978;4.498;2022-10-16T01:39:45;1.90;;;0.88;;
69783;SDS011;57054;51.978;4.498;2022-10-16T01:42:16;2.15;;;1.10;;
69783;SDS011;57054;51.978;4.498;2022-10-16T01:44:46;1.15;;;0.90;;
69783;SDS011;57054;51.978;4.498;2022-10-16T01:47:14;0.90;;;0.73;;
69783;SDS011;57054;51.978;4.498;2022-10-16T01:49:42;0.80;;;0.80;;
69783;SDS011;57054;51.978;4.498;2022-10-16T01:52:10;1.52;;;0.95;;
69783;SDS011;57054;51.978;4.498;2022-10-16T01:54:40;2.45;;;1.00;;
69783;SDS011;57054;51.978;4.498;2022-10-16T01:59:35;0.75;;;0.75;;
69783;SDS011;57054;51.978;4.498;2022-10-16T02:02:09;1.05;;;0.93;;
69783;SDS011;57054;51.978;4.498;2022-10-16T02:04:38;6.65;;;1.45;;
69783;SDS011;57054;51.978;4.498;2022-10-16T02:07:07;1.33;;;1.10;;
69783;SDS011;57054;51.978;4.498;2022-10-16T02:09:33;4.10;;;1.23;;
69783;SDS011;57054;51.978;4.498;2022-10-16T02:12:01;1.33;;;0.93;;
69783;SDS011;57054;51.978;4.498;2022-10-16T02:14:35;0.82;;;0.82;;
69783;SDS011;57054;51.978;4.498;2022-10-16T02:17:09;0.98;;;0.98;;
69783;SDS011;57054;51.978;4.498;2022-10-16T02:19:36;1.45;;;1.35;;
69783;SDS011;57054;51.978;4.498;2022-10-16T02:22:02;2.45;;;1.15;;
69783;SDS011;57054;51.978;4.498;2022-10-16T02:24:32;1.48;;;1.27;;
69783;SDS011;57054;51.978;4.498;2022-10-16T02:27:10;1.27;;;1.17;;
69783;SDS011;57054;51.978;4.498;2022-10-16T02:29:45;2.20;;;1.15;;
69783;SDS011;57054;51.978;4.498;2022-10-16T02:32:15;1.48;;;1.20;;
69783;SDS011;57054;51.978;4.498;2022-10-16T02:34:45;2.72;;;1.33;;
69783;SDS011;57054;51.978;4.498;2022-10-16T02:37:11;3.42;;;1.15;;
69783;SDS011;57054;51.978;4.498;2022-10-16T02:39:38;1.35;;;1.00;;
69783;SDS011;57054;51.978;4.498;2022-10-16T02:42:09;1.08;;;1.00;;
69783;SDS011;57054;51.978;4.498;2022-10-16T02:44:36;3.75;;;1.35;;
69783;SDS011;57054;51.978;4.498;2022-10-16T02:47:01;2.78;;;1.02;;
69783;SDS011;57054;51.978;4.498;2022-10-16T02:49:27;2.35;;;1.10;;
69783;SDS011;57054;51.978;4.498;2022-10-16T02:51:52;3.67;;;1.30;;
69783;SDS011;57054;51.978;4.498;2022-10-16T02:54:18;1.40;;;0.90;;
69783;SDS011;57054;51.978;4.498;2022-10-16T02:56:43;1.10;;;1.08;;
69783;SDS011;57054;51.978;4.498;2022-10-16T02:59:08;4.15;;;1.15;;
69783;SDS011;57054;51.978;4.498;2022-10-16T03:01:34;2.13;;;0.93;;
69783;SDS011;57054;51.978;4.498;2022-10-16T03:03:59;1.45;;;1.10;;
69783;SDS011;57054;51.978;4.498;2022-10-16T03:06:24;2.50;;;1.17;;
69783;SDS011;57054;51.978;4.498;2022-10-16T03:08:50;1.15;;;0.90;;
69783;SDS011;57054;51.978;4.498;2022-10-16T03:11:15;2.17;;;1.25;;
69783;SDS011;57054;51.978;4.498;2022-10-16T03:13:41;1.30;;;0.98;;
69783;SDS011;57054;51.978;4.498;2022-10-16T03:16:06;1.13;;;1.00;;
69783;SDS011;57054;51.978;4.498;2022-10-16T03:18:31;1.50;;;0.80;;
69783;SDS011;57054;51.978;4.498;2022-10-16T03:20:57;2.55;;;1.02;;
69783;SDS011;57054;51.978;4.498;2022-10-16T03:23:22;2.22;;;1.02;;
69783;SDS011;57054;51.978;4.498;2022-10-16T03:25:47;2.45;;;1.08;;
69783;SDS011;57054;51.978;4.498;2022-10-16T03:28:13;1.13;;;0.93;;
69783;SDS011;57054;51.978;4.498;2022-10-16T03:30:38;3.65;;;1.15;;
69783;SDS011;57054;51.978;4.498;2022-10-16T03:33:04;1.83;;;1.10;;
69783;SDS011;57054;51.978;4.498;2022-10-16T03:35:30;1.25;;;0.90;;
69783;SDS011;57054;51.978;4.498;2022-10-16T03:37:55;1.27;;;0.90;;
69783;SDS011;57054;51.978;4.498;2022-10-16T03:40:21;3.55;;;0.93;;
69783;SDS011;57054;51.978;4.498;2022-10-16T03:42:46;1.45;;;0.90;;
69783;SDS011;57054;51.978;4.498;2022-10-16T03:45:12;3.22;;;1.10;;
69783;SDS011;57054;51.978;4.498;2022-10-16T03:47:37;1.30;;;1.20;;
69783;SDS011;57054;51.978;4.498;2022-10-16T03:50:03;1.65;;;1.10;;
69783;SDS011;57054;51.978;4.498;2022-10-16T03:52:29;2.50;;;0.93;;
69783;SDS011;57054;51.978;4.498;2022-10-16T03:54:55;2.70;;;1.00;;
69783;SDS011;57054;51.978;4.498;2022-10-16T03:57:20;2.15;;;0.80;;
69783;SDS011;57054;51.978;4.498;2022-10-16T03:59:46;2.35;;;0.90;;
69783;SDS011;57054;51.978;4.498;2022-10-16T04:02:11;1.10;;;1.00;;
69783;SDS011;57054;51.978;4.498;2022-10-16T04:04:37;2.17;;;0.90;;
69783;SDS011;57054;51.978;4.498;2022-10-16T04:07:03;1.95;;;1.13;;
69783;SDS011;57054;51.978;4.498;2022-10-16T04:09:29;4.45;;;1.15;;
69783;SDS011;57054;51.978;4.498;2022-10-16T04:11:54;2.08;;;0.90;;
69783;SDS011;57054;51.978;4.498;2022-10-16T04:14:19;2.58;;;1.52;;
69783;SDS011;57054;51.978;4.498;2022-10-16T04:16:45;1.63;;;1.15;;
69783;SDS011;57054;51.978;4.498;2022-10-16T04:19:10;1.08;;;0.98;;
69783;SDS011;57054;51.978;4.498;2022-10-16T04:21:36;0.90;;;0.90;;
69783;SDS011;57054;51.978;4.498;2022-10-16T04:24:02;1.27;;;1.00;;
69783;SDS011;57054;51.978;4.498;2022-10-16T04:26:27;1.20;;;1.10;;
69783;SDS011;57054;51.978;4.498;2022-10-16T04:28:53;1.67;;;1.00;;
69783;SDS011;57054;51.978;4.498;2022-10-16T04:31:19;2.20;;;1.13;;
69783;SDS011;57054;51.978;4.498;2022-10-16T04:33:45;2.17;;;1.00;;
69783;SDS011;57054;51.978;4.498;2022-10-16T04:36:11;1.38;;;1.10;;
69783;SDS011;57054;51.978;4.498;2022-10-16T04:38:37;2.35;;;1.13;;
69783;SDS011;57054;51.978;4.498;2022-10-16T04:41:02;1.05;;;0.95;;
69783;SDS011;57054;51.978;4.498;2022-10-16T04:43:28;1.67;;;1.10;;
69783;SDS011;57054;51.978;4.498;2022-10-16T04:45:54;4.13;;;1.25;;
69783;SDS011;57054;51.978;4.498;2022-10-16T04:48:20;3.20;;;1.40;;
69783;SDS011;57054;51.978;4.498;2022-10-16T04:50:45;1.08;;;0.90;;
69783;SDS011;57054;51.978;4.498;2022-10-16T04:53:11;2.80;;;1.10;;
69783;SDS011;57054;51.978;4.498;2022-10-16T04:55:36;1.40;;;1.20;;
69783;SDS011;57054;51.978;4.498;2022-10-16T04:58:03;1.67;;;1.20;;
69783;SDS011;57054;51.978;4.498;2022-10-16T05:00:29;2.38;;;1.00;;
69783;SDS011;57054;51.978;4.498;2022-10-16T05:02:54;0.80;;;0.80;;
69783;SDS011;57054;51.978;4.498;2022-10-16T05:05:19;3.40;;;1.40;;
69783;SDS011;57054;51.978;4.498;2022-10-16T05:07:45;0.85;;;0.85;;
69783;SDS011;57054;51.978;4.498;2022-10-16T05:10:11;1.05;;;0.95;;
69783;SDS011;57054;51.978;4.498;2022-10-16T05:12:37;3.38;;;1.00;;
69783;SDS011;57054;51.978;4.498;2022-10-16T05:15:02;1.55;;;1.10;;
69783;SDS011;57054;51.978;4.498;2022-10-16T05:17:28;1.77;;;1.00;;
69783;SDS011;57054;51.978;4.498;2022-10-16T05:19:53;2.17;;;1.10;;
69783;SDS011;57054;51.978;4.498;2022-10-16T05:22:19;1.27;;;1.10;;
69783;SDS011;57054;51.978;4.498;2022-10-16T05:24:44;1.38;;;1.00;;
69783;SDS011;57054;51.978;4.498;2022-10-16T05:27:10;2.15;;;0.88;;
69783;SDS011;57054;51.978;4.498;2022-10-16T05:29:36;1.73;;;1.20;;
69783;SDS011;57054;51.978;4.498;2022-10-16T05:32:01;2.25;;;1.00;;
69783;SDS011;57054;51.978;4.498;2022-10-16T05:34:27;2.92;;;0.90;;
69783;SDS011;57054;51.978;4.498;2022-10-16T05:36:53;2.35;;;1.20;;
69783;SDS011;57054;51.978;4.498;2022-10-16T05:39:18;0.90;;;0.90;;
69783;SDS011;57054;51.978;4.498;2022-10-16T05:41:44;1.40;;;0.90;;
69783;SDS011;57054;51.978;4.498;2022-10-16T05:44:09;1.42;;;1.10;;
69783;SDS011;57054;51.978;4.498;2022-10-16T05:46:35;0.93;;;0.77;;
69783;SDS011;57054;51.978;4.498;2022-10-16T05:49:00;2.22;;;1.08;;
69783;SDS011;57054;51.978;4.498;2022-10-16T05:51:25;2.83;;;1.40;;
69783;SDS011;57054;51.978;4.498;2022-10-16T05:53:51;2.83;;;0.85;;
69783;SDS011;57054;51.978;4.498;2022-10-16T05:56:17;2.22;;;0.90;;
69783;SDS011;57054;51.978;4.498;2022-10-16T05:58:43;1.65;;;0.88;;
69783;SDS011;57054;51.978;4.498;2022-10-16T06:01:13;1.75;;;0.93;;
69783;SDS011;57054;51.978;4.498;2022-10-16T06:03:40;2.13;;;0.88;;
69783;SDS011;57054;51.978;4.498;2022-10-16T06:06:10;3.92;;;1.10;;
69783;SDS011;57054;51.978;4.498;2022-10-16T06:08:40;1.33;;;1.02;;
69783;SDS011;57054;51.978;4.498;2022-10-16T06:11:08;1.42;;;0.85;;
69783;SDS011;57054;51.978;4.498;2022-10-16T06:13:35;2.90;;;0.90;;
69783;SDS011;57054;51.978;4.498;2022-10-16T06:16:01;1.52;;;0.88;;
69783;SDS011;57054;51.978;4.498;2022-10-16T06:18:27;3.60;;;1.10;;
69783;SDS011;57054;51.978;4.498;2022-10-16T06:20:53;1.63;;;1.00;;
69783;SDS011;57054;51.978;4.498;2022-10-16T06:23:19;3.30;;;1.17;;
69783;SDS011;57054;51.978;4.498;2022-10-16T06:25:45;1.52;;;0.80;;
69783;SDS011;57054;51.978;4.498;2022-10-16T06:28:10;1.55;;;0.90;;
69783;SDS011;57054;51.978;4.498;2022-10-16T06:30:35;1.50;;;0.95;;
69783;SDS011;57054;51.978;4.498;2022-10-16T06:33:01;2.72;;;1.40;;
69783;SDS011;57054;51.978;4.498;2022-10-16T06:35:26;2.15;;;0.85;;
69783;SDS011;57054;51.978;4.498;2022-10-16T06:37:55;1.67;;;0.80;;
69783;SDS011;57054;51.978;4.498;2022-10-16T06:40:20;3.90;;;1.15;;
69783;SDS011;57054;51.978;4.498;2022-10-16T06:42:45;0.88;;;0.73;;
69783;SDS011;57054;51.978;4.498;2022-10-16T06:45:11;4.90;;;1.25;;
69783;SDS011;57054;51.978;4.498;2022-10-16T06:47:37;3.20;;;1.35;;
69783;SDS011;57054;51.978;4.498;2022-10-16T06:50:03;1.20;;;0.73;;
69783;SDS011;57054;51.978;4.498;2022-10-16T06:52:29;3.33;;;1.00;;
69783;SDS011;57054;51.978;4.498;2022-10-16T06:54:54;1.27;;;0.80;;
69783;SDS011;57054;51.978;4.498;2022-10-16T06:57:19;7.18;;;1.23;;
69783;SDS011;57054;51.978;4.498;2022-10-16T06:59:45;1.58;;;0.90;;
69783;SDS011;57054;51.978;4.498;2022-10-16T07:02:10;2.83;;;0.82;;
69783;SDS011;57054;51.978;4.498;2022-10-16T07:04:36;4.07;;;1.15;;
69783;SDS011;57054;51.978;4.498;2022-10-16T07:07:01;3.13;;;1.38;;
69783;SDS011;57054;51.978;4.498;2022-10-16T07:09:27;1.42;;;0.68;;
69783;SDS011;57054;51.978;4.498;2022-10-16T07:11:52;9.73;;;1.30;;
69783;SDS011;57054;51.978;4.498;2022-10-16T07:14:19;1.17;;;1.00;;
69783;SDS011;57054;51.978;4.498;2022-10-16T07:16:45;2.80;;;1.00;;
69783;SDS011;57054;51.978;4.498;2022-10-16T07:19:11;2.25;;;0.93;;
69783;SDS011;57054;51.978;4.498;2022-10-16T07:21:40;4.90;;;1.15;;
69783;SDS011;57054;51.978;4.498;2022-10-16T07:24:06;3.58;;;1.48;;
69783;SDS011;57054;51.978;4.498;2022-10-16T07:26:36;2.97;;;1.75;;
69783;SDS011;57054;51.978;4.498;2022-10-16T07:29:04;2.05;;;1.00;;
69783;SDS011;57054;51.978;4.498;2022-10-16T07:31:31;5.68;;;0.93;;
69783;SDS011;57054;51.978;4.498;2022-10-16T07:33:58;2.55;;;1.20;;
69783;SDS011;57054;51.978;4.498;2022-10-16T07:36:24;2.17;;;1.00;;
69783;SDS011;57054;51.978;4.498;2022-10-16T07:38:49;3.90;;;1.42;;
69783;SDS011;57054;51.978;4.498;2022-10-16T07:41:16;5.20;;;1.50;;
69783;SDS011;57054;51.978;4.498;2022-10-16T07:43:47;2.25;;;1.08;;
69783;SDS011;57054;51.978;4.498;2022-10-16T07:46:16;3.83;;;1.35;;
69783;SDS011;57054;51.978;4.498;2022-10-16T07:48:43;4.90;;;1.10;;
69783;SDS011;57054;51.978;4.498;2022-10-16T07:51:13;1.73;;;0.88;;
69783;SDS011;57054;51.978;4.498;2022-10-16T07:53:43;4.43;;;1.33;;
69783;SDS011;57054;51.978;4.498;2022-10-16T07:56:08;3.97;;;1.50;;
69783;SDS011;57054;51.978;4.498;2022-10-16T07:58:34;1.25;;;0.98;;
69783;SDS011;57054;51.978;4.498;2022-10-16T08:01:09;2.08;;;1.35;;
69783;SDS011;57054;51.978;4.498;2022-10-16T08:03:36;2.47;;;1.27;;
69783;SDS011;57054;51.978;4.498;2022-10-16T08:06:02;5.28;;;1.50;;
69783;SDS011;57054;51.978;4.498;2022-10-16T08:08:28;4.55;;;1.30;;
69783;SDS011;57054;51.978;4.498;2022-10-16T08:10:54;3.10;;;1.48;;
69783;SDS011;57054;51.978;4.498;2022-10-16T08:13:19;4.82;;;1.40;;
69783;SDS011;57054;51.978;4.498;2022-10-16T08:15:45;2.17;;;1.00;;
69783;SDS011;57054;51.978;4.498;2022-10-16T08:18:12;3.15;;;1.17;;
69783;SDS011;57054;51.978;4.498;2022-10-16T08:20:39;7.68;;;1.30;;
69783;SDS011;57054;51.978;4.498;2022-10-16T08:23:05;5.13;;;1.65;;
69783;SDS011;57054;51.978;4.498;2022-10-16T08:25:33;7.95;;;1.88;;
69783;SDS011;57054;51.978;4.498;2022-10-16T08:28:00;2.08;;;1.13;;
69783;SDS011;57054;51.978;4.498;2022-10-16T08:30:28;5.47;;;1.65;;
69783;SDS011;57054;51.978;4.498;2022-10-16T08:32:53;4.20;;;1.40;;
69783;SDS011;57054;51.978;4.498;2022-10-16T08:35:19;7.57;;;1.60;;
69783;SDS011;57054;51.978;4.498;2022-10-16T08:37:44;4.82;;;1.40;;
69783;SDS011;57054;51.978;4.498;2022-10-16T08:40:17;5.05;;;1.20;;
69783;SDS011;57054;51.978;4.498;2022-10-16T08:45:45;6.38;;;1.17;;
69783;SDS011;57054;51.978;4.498;2022-10-16T08:51:22;6.95;;;1.52;;
69783;SDS011;57054;51.978;4.498;2022-10-16T08:53:58;4.60;;;1.10;;
69783;SDS011;57054;51.978;4.498;2022-10-16T08:58:53;6.63;;;1.40;;
69783;SDS011;57054;51.978;4.498;2022-10-16T09:01:20;4.57;;;1.40;;
69783;SDS011;57054;51.978;4.498;2022-10-16T09:11:59;6.43;;;1.90;;
69783;SDS011;57054;51.978;4.498;2022-10-16T09:17:26;4.25;;;1.17;;
69783;SDS011;57054;51.978;4.498;2022-10-16T09:22:55;11.27;;;2.22;;
69783;SDS011;57054;51.978;4.498;2022-10-16T09:25:37;11.35;;;1.83;;
69783;SDS011;57054;51.978;4.498;2022-10-16T09:30:32;11.55;;;1.85;;
69783;SDS011;57054;51.978;4.498;2022-10-16T09:32:58;9.70;;;1.83;;
69783;SDS011;57054;51.978;4.498;2022-10-16T09:35:43;9.85;;;2.28;;
69783;SDS011;57054;51.978;4.498;2022-10-16T09:38:24;13.65;;;1.80;;
69783;SDS011;57054;51.978;4.498;2022-10-16T09:40:54;13.25;;;2.20;;
69783;SDS011;57054;51.978;4.498;2022-10-16T09:46:03;10.00;;;1.83;;
69783;SDS011;57054;51.978;4.498;2022-10-16T09:48:33;6.57;;;1.95;;
69783;SDS011;57054;51.978;4.498;2022-10-16T09:51:01;8.45;;;1.83;;
69783;SDS011;57054;51.978;4.498;2022-10-16T09:53:53;8.30;;;1.42;;
69783;SDS011;57054;51.978;4.498;2022-10-16T09:56:23;6.82;;;1.50;;
69783;SDS011;57054;51.978;4.498;2022-10-16T09:58:55;9.68;;;1.50;;
69783;SDS011;57054;51.978;4.498;2022-10-16T10:01:24;10.80;;;1.50;;
69783;SDS011;57054;51.978;4.498;2022-10-16T10:03:55;7.80;;;1.52;;
69783;SDS011;57054;51.978;4.498;2022-10-16T10:06:30;12.45;;;2.08;;
69783;SDS011;57054;51.978;4.498;2022-10-16T10:11:42;8.35;;;1.48;;
69783;SDS011;57054;51.978;4.498;2022-10-16T10:16:46;8.32;;;1.60;;
69783;SDS011;57054;51.978;4.498;2022-10-16T10:19:16;6.75;;;1.77;;
69783;SDS011;57054;51.978;4.498;2022-10-16T10:21:46;10.30;;;1.70;;
69783;SDS011;57054;51.978;4.498;2022-10-16T10:24:13;9.90;;;1.40;;
69783;SDS011;57054;51.978;4.498;2022-10-16T10:29:45;4.78;;;1.35;;
69783;SDS011;57054;51.978;4.498;2022-10-16T10:35:14;11.07;;;1.30;;
69783;SDS011;57054;51.978;4.498;2022-10-16T10:40:53;8.55;;;1.45;;
69783;SDS011;57054;51.978;4.498;2022-10-16T10:46:35;12.23;;;1.75;;
69783;SDS011;57054;51.978;4.498;2022-10-16T10:54:23;11.13;;;1.92;;
69783;SDS011;57054;51.978;4.498;2022-10-16T10:57:03;8.80;;;1.83;;
69783;SDS011;57054;51.978;4.498;2022-10-16T11:07:15;8.60;;;1.77;;
69783;SDS011;57054;51.978;4.498;2022-10-16T11:09:48;8.57;;;1.15;;
69783;SDS011;57054;51.978;4.498;2022-10-16T11:12:18;10.43;;;1.60;;
69783;SDS011;57054;51.978;4.498;2022-10-16T11:20:14;6.18;;;1.50;;
69783;SDS011;57054;51.978;4.498;2022-10-16T11:23:02;7.28;;;1.35;;
69783;SDS011;57054;51.978;4.498;2022-10-16T11:25:37;6.40;;;1.38;;
69783;SDS011;57054;51.978;4.498;2022-10-16T11:30:44;14.27;;;2.08;;
69783;SDS011;57054;51.978;4.498;2022-10-16T11:35:56;11.75;;;2.17;;
69783;SDS011;57054;51.978;4.498;2022-10-16T11:41:02;11.45;;;1.25;;
69783;SDS011;57054;51.978;4.498;2022-10-16T11:43:39;10.45;;;1.80;;
69783;SDS011;57054;51.978;4.498;2022-10-16T11:46:09;6.57;;;1.77;;
69783;SDS011;57054;51.978;4.498;2022-10-16T11:48:42;12.55;;;1.77;;
69783;SDS011;57054;51.978;4.498;2022-10-16T11:51:21;4.38;;;1.38;;
69783;SDS011;57054;51.978;4.498;2022-10-16T11:54:14;10.57;;;1.63;;
69783;SDS011;57054;51.978;4.498;2022-10-16T11:56:43;8.40;;;1.42;;
69783;SDS011;57054;51.978;4.498;2022-10-16T12:05:00;5.95;;;1.80;;
69783;SDS011;57054;51.978;4.498;2022-10-16T12:07:36;10.05;;;1.60;;
69783;SDS011;57054;51.978;4.498;2022-10-16T12:10:11;7.18;;;1.80;;
69783;SDS011;57054;51.978;4.498;2022-10-16T12:12:50;5.68;;;1.02;;
69783;SDS011;57054;51.978;4.498;2022-10-16T12:15:26;9.95;;;1.65;;
69783;SDS011;57054;51.978;4.498;2022-10-16T12:17:54;8.00;;;1.38;;
69783;SDS011;57054;51.978;4.498;2022-10-16T12:23:21;7.68;;;1.40;;
69783;SDS011;57054;51.978;4.498;2022-10-16T12:25:52;11.13;;;1.70;;
69783;SDS011;57054;51.978;4.498;2022-10-16T12:28:27;8.27;;;1.55;;
69783;SDS011;57054;51.978;4.498;2022-10-16T12:31:03;6.93;;;1.65;;
69783;SDS011;57054;51.978;4.498;2022-10-16T12:33:35;7.10;;;1.05;;
69783;SDS011;57054;51.978;4.498;2022-10-16T12:36:05;5.32;;;1.25;;
69783;SDS011;57054;51.978;4.498;2022-10-16T12:38:44;7.43;;;2.13;;
69783;SDS011;57054;51.978;4.498;2022-10-16T12:41:12;10.73;;;1.40;;
69783;SDS011;57054;51.978;4.498;2022-10-16T12:43:46;8.82;;;1.52;;
69783;SDS011;57054;51.978;4.498;2022-10-16T12:48:38;4.87;;;1.30;;
69783;SDS011;57054;51.978;4.498;2022-10-16T12:51:12;8.38;;;1.25;;
69783;SDS011;57054;51.978;4.498;2022-10-16T12:54:03;10.55;;;1.85;;
69783;SDS011;57054;51.978;4.498;2022-10-16T12:56:38;9.90;;;1.65;;
69783;SDS011;57054;51.978;4.498;2022-10-16T13:10:51;7.90;;;1.40;;
69783;SDS011;57054;51.978;4.498;2022-10-16T13:13:29;7.47;;;1.05;;
69783;SDS011;57054;51.978;4.498;2022-10-16T13:16:22;6.97;;;1.58;;
69783;SDS011;57054;51.978;4.498;2022-10-16T13:19:22;8.00;;;1.10;;
69783;SDS011;57054;51.978;4.498;2022-10-16T13:27:13;6.90;;;1.42;;
69783;SDS011;57054;51.978;4.498;2022-10-16T13:29:40;11.60;;;1.90;;
69783;SDS011;57054;51.978;4.498;2022-10-16T13:32:07;13.90;;;1.75;;
69783;SDS011;57054;51.978;4.498;2022-10-16T13:34:44;9.10;;;1.10;;
69783;SDS011;57054;51.978;4.498;2022-10-16T13:37:17;7.85;;;2.17;;
69783;SDS011;57054;51.978;4.498;2022-10-16T13:39:44;14.60;;;1.55;;
69783;SDS011;57054;51.978;4.498;2022-10-16T13:42:11;6.20;;;1.45;;
69783;SDS011;57054;51.978;4.498;2022-10-16T13:44:40;10.07;;;1.38;;
69783;SDS011;57054;51.978;4.498;2022-10-16T13:47:19;6.57;;;1.40;;
69783;SDS011;57054;51.978;4.498;2022-10-16T13:52:44;4.43;;;1.02;;
69783;SDS011;57054;51.978;4.498;2022-10-16T13:55:13;9.68;;;2.08;;
69783;SDS011;57054;51.978;4.498;2022-10-16T13:57:41;8.77;;;1.50;;
69783;SDS011;57054;51.978;4.498;2022-10-16T14:00:20;10.05;;;1.98;;
69783;SDS011;57054;51.978;4.498;2022-10-16T14:02:50;3.45;;;1.17;;
69783;SDS011;57054;51.978;4.498;2022-10-16T14:05:20;8.27;;;2.00;;
69783;SDS011;57054;51.978;4.498;2022-10-16T14:07:47;8.93;;;1.73;;
69783;SDS011;57054;51.978;4.498;2022-10-16T14:10:23;10.55;;;1.52;;
69783;SDS011;57054;51.978;4.498;2022-10-16T14:13:03;7.63;;;1.73;;
69783;SDS011;57054;51.978;4.498;2022-10-16T14:15:31;9.27;;;1.95;;
69783;SDS011;57054;51.978;4.498;2022-10-16T14:17:59;11.75;;;1.77;;
69783;SDS011;57054;51.978;4.498;2022-10-16T14:20:26;11.93;;;2.95;;
69783;SDS011;57054;51.978;4.498;2022-10-16T14:23:03;7.70;;;1.48;;
69783;SDS011;57054;51.978;4.498;2022-10-16T14:25:45;7.57;;;1.83;;
69783;SDS011;57054;51.978;4.498;2022-10-16T14:30:49;4.88;;;1.45;;
69783;SDS011;57054;51.978;4.498;2022-10-16T14:33:23;8.45;;;1.67;;
69783;SDS011;57054;51.978;4.498;2022-10-16T14:36:03;6.13;;;1.13;;
69783;SDS011;57054;51.978;4.498;2022-10-16T14:39:03;9.85;;;1.48;;
69783;SDS011;57054;51.978;4.498;2022-10-16T14:41:30;13.27;;;1.63;;
69783;SDS011;57054;51.978;4.498;2022-10-16T14:44:06;13.05;;;1.75;;
69783;SDS011;57054;51.978;4.498;2022-10-16T14:46:35;11.93;;;1.70;;
69783;SDS011;57054;51.978;4.498;2022-10-16T14:49:03;16.08;;;2.13;;
69783;SDS011;57054;51.978;4.498;2022-10-16T14:51:50;13.48;;;1.83;;
69783;SDS011;57054;51.978;4.498;2022-10-16T14:54:17;12.25;;;1.63;;
69783;SDS011;57054;51.978;4.498;2022-10-16T14:56:53;6.15;;;1.48;;
69783;SDS011;57054;51.978;4.498;2022-10-16T15:01:48;8.90;;;1.13;;
69783;SDS011;57054;51.978;4.498;2022-10-16T15:04:15;3.92;;;1.27;;
69783;SDS011;57054;51.978;4.498;2022-10-16T15:06:41;6.40;;;1.45;;
69783;SDS011;57054;51.978;4.498;2022-10-16T15:09:06;3.90;;;1.30;;
69783;SDS011;57054;51.978;4.498;2022-10-16T15:11:32;7.78;;;1.98;;
69783;SDS011;57054;51.978;4.498;2022-10-16T15:13:58;9.32;;;1.75;;
69783;SDS011;57054;51.978;4.498;2022-10-16T15:16:23;10.68;;;1.70;;
69783;SDS011;57054;51.978;4.498;2022-10-16T15:18:49;10.07;;;1.65;;
69783;SDS011;57054;51.978;4.498;2022-10-16T15:21:21;5.03;;;1.85;;
69783;SDS011;57054;51.978;4.498;2022-10-16T15:23:51;8.75;;;1.90;;
69783;SDS011;57054;51.978;4.498;2022-10-16T15:26:16;5.53;;;1.45;;
69783;SDS011;57054;51.978;4.498;2022-10-16T15:28:41;10.35;;;1.98;;
69783;SDS011;57054;51.978;4.498;2022-10-16T15:31:07;10.85;;;2.08;;
69783;SDS011;57054;51.978;4.498;2022-10-16T15:33:32;10.38;;;1.65;;
69783;SDS011;57054;51.978;4.498;2022-10-16T15:35:59;5.20;;;1.55;;
69783;SDS011;57054;51.978;4.498;2022-10-16T15:38:26;4.97;;;1.30;;
69783;SDS011;57054;51.978;4.498;2022-10-16T15:40:52;11.05;;;2.13;;
69783;SDS011;57054;51.978;4.498;2022-10-16T15:43:18;7.95;;;1.70;;
69783;SDS011;57054;51.978;4.498;2022-10-16T15:45:44;5.65;;;1.42;;
69783;SDS011;57054;51.978;4.498;2022-10-16T15:48:10;6.30;;;1.73;;
69783;SDS011;57054;51.978;4.498;2022-10-16T15:50:38;8.30;;;2.08;;
69783;SDS011;57054;51.978;4.498;2022-10-16T15:53:04;5.45;;;1.65;;
69783;SDS011;57054;51.978;4.498;2022-10-16T15:55:29;4.22;;;1.40;;
69783;SDS011;57054;51.978;4.498;2022-10-16T15:57:55;8.65;;;1.38;;
69783;SDS011;57054;51.978;4.498;2022-10-16T16:00:20;9.35;;;1.90;;
69783;SDS011;57054;51.978;4.498;2022-10-16T16:02:51;5.82;;;1.52;;
69783;SDS011;57054;51.978;4.498;2022-10-16T16:05:18;5.13;;;1.70;;
69783;SDS011;57054;51.978;4.498;2022-10-16T16:07:44;8.55;;;2.00;;
69783;SDS011;57054;51.978;4.498;2022-10-16T16:10:09;10.48;;;2.20;;
69783;SDS011;57054;51.978;4.498;2022-10-16T16:12:36;9.25;;;1.70;;
69783;SDS011;57054;51.978;4.498;2022-10-16T16:15:02;6.15;;;1.67;;
69783;SDS011;57054;51.978;4.498;2022-10-16T16:17:32;4.82;;;1.48;;
69783;SDS011;57054;51.978;4.498;2022-10-16T16:19:58;4.43;;;1.48;;
69783;SDS011;57054;51.978;4.498;2022-10-16T16:22:23;3.80;;;1.25;;
69783;SDS011;57054;51.978;4.498;2022-10-16T16:24:49;5.95;;;1.85;;
69783;SDS011;57054;51.978;4.498;2022-10-16T16:27:14;4.60;;;1.50;;
69783;SDS011;57054;51.978;4.498;2022-10-16T16:29:40;7.97;;;1.90;;
69783;SDS011;57054;51.978;4.498;2022-10-16T16:32:05;5.65;;;2.28;;
69783;SDS011;57054;51.978;4.498;2022-10-16T16:34:31;8.32;;;2.05;;
69783;SDS011;57054;51.978;4.498;2022-10-16T16:36:56;5.55;;;1.90;;
69783;SDS011;57054;51.978;4.498;2022-10-16T16:39:22;10.10;;;1.90;;
69783;SDS011;57054;51.978;4.498;2022-10-16T16:41:48;4.53;;;1.85;;
69783;SDS011;57054;51.978;4.498;2022-10-16T16:44:14;6.25;;;1.70;;
69783;SDS011;57054;51.978;4.498;2022-10-16T16:46:40;8.40;;;1.83;;
69783;SDS011;57054;51.978;4.498;2022-10-16T16:49:08;6.60;;;2.10;;
69783;SDS011;57054;51.978;4.498;2022-10-16T16:51:35;5.50;;;1.90;;
69783;SDS011;57054;51.978;4.498;2022-10-16T16:54:01;7.30;;;2.13;;
69783;SDS011;57054;51.978;4.498;2022-10-16T16:56:26;6.03;;;2.17;;